Marine On Saint Croix, Minnesota
Current Conditions -  °F | °C
As of 10:15 PM on Tuesday 27 Jan 2015 (Local Time) from KOEO Reporting Station
Overcast Overcast  
Wind Chill: 19°   Ceiling: 1400
Heat Index: 29°   Visibility: 10mi
Dew Point: 24°   Wind: 12mph
Humidity: 83%   Direction: 150°SSE
Pressure: 30.16"   Gusts: NA
Location:  45.37°N, 92.77°W
Report Text: KOEO 280415Z AUTO 15010KT 10SM OVC014 M02/M04 A3016 RMK AO2 T10171043
Loading
Personal Weather Stations






























Interactive Weather Map New forecast layout! Learn more

10-Day Weather Forecast

Advertisements
Track Severe Weather on mobile